createdAt,value
2017-11-19T00:00:20.162Z,943.1
2017-11-19T00:01:28.730Z,943.1
2017-11-19T00:02:36.185Z,943.1
2017-11-19T00:03:44.402Z,943.1
2017-11-19T00:04:52.415Z,943.1
2017-11-19T00:06:00.445Z,943.1
2017-11-19T00:07:08.536Z,943.0
2017-11-19T00:08:16.620Z,943.1
2017-11-19T00:09:24.708Z,943.1
2017-11-19T00:10:32.852Z,943.1
2017-11-19T00:11:40.880Z,943.2
2017-11-19T00:12:48.966Z,943.1
2017-11-19T00:13:57.054Z,943.2
2017-11-19T00:15:05.141Z,943.1
2017-11-19T00:16:13.285Z,943.1
2017-11-19T00:17:21.372Z,943.0
2017-11-19T00:18:29.416Z,943.0
2017-11-19T00:19:37.491Z,943.0
2017-11-19T00:20:45.575Z,942.9
2017-11-19T00:21:53.717Z,942.9
2017-11-19T00:23:01.747Z,943.0
2017-11-19T00:24:09.833Z,943.0
2017-11-19T00:25:17.921Z,943.0
2017-11-19T00:26:26.007Z,942.9
2017-11-19T00:27:34.157Z,942.9
2017-11-19T00:28:42.182Z,942.9
2017-11-19T00:29:50.277Z,942.8
2017-11-19T00:30:58.357Z,942.8
2017-11-19T00:32:06.446Z,942.9
2017-11-19T00:33:14.587Z,942.8
2017-11-19T00:34:22.616Z,942.8
2017-11-19T00:35:30.702Z,942.8
2017-11-19T00:36:38.789Z,942.7
2017-11-19T00:37:46.885Z,942.6
2017-11-19T00:38:55.229Z,942.6
2017-11-19T00:40:03.183Z,942.6
2017-11-19T00:41:11.249Z,942.6
2017-11-19T00:42:19.230Z,942.6
2017-11-19T00:43:27.319Z,942.6
2017-11-19T00:44:35.594Z,942.6
2017-11-19T00:45:43.495Z,942.7
2017-11-19T00:46:51.582Z,942.7
2017-11-19T00:47:59.669Z,942.6
2017-11-19T00:49:07.948Z,942.6
2017-11-19T00:50:15.962Z,942.6
2017-11-19T00:51:23.941Z,942.6
2017-11-19T00:52:32.030Z,942.6
2017-11-19T00:53:40.234Z,942.6
2017-11-19T00:54:48.373Z,942.6
2017-11-19T00:55:56.519Z,942.6
2017-11-19T00:57:04.547Z,942.6
2017-11-19T00:58:12.636Z,942.6
2017-11-19T00:59:20.717Z,942.6
2017-11-19T01:00:28.813Z,942.6
2017-11-19T01:01:37.432Z,942.6
2017-11-19T01:02:45.012Z,942.6
2017-11-19T01:03:53.073Z,942.5
2017-11-19T01:05:01.476Z,942.6
2017-11-19T01:06:09.243Z,942.6
2017-11-19T01:07:17.389Z,942.6
2017-11-19T01:08:25.420Z,942.6
2017-11-19T01:09:33.505Z,942.6
2017-11-19T01:10:41.600Z,942.6
2017-11-19T01:11:49.680Z,942.6
2017-11-19T01:12:57.823Z,942.6
2017-11-19T01:14:05.853Z,942.6
2017-11-19T01:15:13.939Z,942.6
2017-11-19T01:16:22.025Z,942.5
2017-11-19T01:17:30.113Z,942.6
2017-11-19T01:18:38.325Z,942.5
2017-11-19T01:19:46.288Z,942.5
2017-11-19T01:20:54.558Z,942.4
2017-11-19T01:22:02.466Z,942.4
2017-11-19T01:23:10.551Z,942.4
2017-11-19T01:24:18.757Z,942.4
2017-11-19T01:25:26.726Z,942.3
2017-11-19T01:26:34.812Z,942.4
2017-11-19T01:27:42.899Z,942.3
2017-11-19T01:28:50.986Z,942.3
2017-11-19T01:29:59.164Z,942.3
2017-11-19T01:31:07.160Z,942.3
2017-11-19T01:32:15.246Z,942.3
2017-11-19T01:33:23.331Z,942.2
2017-11-19T01:34:31.417Z,942.2
2017-11-19T01:35:39.578Z,942.2
2017-11-19T01:36:47.649Z,942.1
2017-11-19T01:37:55.678Z,942.2
2017-11-19T01:39:03.888Z,942.2
2017-11-19T01:40:11.859Z,942.2
2017-11-19T01:41:20.000Z,942.2
2017-11-19T01:42:28.030Z,942.2
2017-11-19T01:43:36.523Z,942.2
2017-11-19T01:44:44.535Z,942.1
2017-11-19T01:45:52.621Z,942.1
2017-11-19T01:47:00.771Z,942.1
2017-11-19T01:48:08.805Z,942.1
2017-11-19T01:49:16.881Z,942.1
2017-11-19T01:50:24.977Z,942.0
2017-11-19T01:51:33.064Z,942.0
2017-11-19T01:52:41.209Z,942.0
2017-11-19T01:53:49.237Z,942.0
2017-11-19T01:54:57.324Z,941.9
2017-11-19T01:56:05.605Z,942.0
2017-11-19T01:57:13.497Z,941.9
2017-11-19T01:58:21.702Z,941.9
2017-11-19T01:59:29.669Z,941.9
2017-11-19T02:00:37.756Z,941.9
2017-11-19T02:01:45.855Z,941.9
2017-11-19T02:02:53.945Z,941.9
2017-11-19T02:04:02.091Z,941.9
2017-11-19T02:05:10.120Z,941.9
2017-11-19T02:06:18.206Z,941.9
2017-11-19T02:07:26.292Z,941.9
2017-11-19T02:08:34.435Z,941.9
2017-11-19T02:09:42.824Z,941.8
2017-11-19T02:10:50.793Z,941.8
2017-11-19T02:11:58.878Z,941.8
2017-11-19T02:13:06.966Z,941.8
2017-11-19T02:14:15.114Z,941.7
2017-11-19T02:15:23.522Z,941.7
2017-11-19T02:16:31.589Z,941.7
2017-11-19T02:17:39.643Z,941.7
2017-11-19T02:18:47.728Z,941.7
2017-11-19T02:19:55.812Z,941.8
2017-11-19T02:21:04.037Z,941.7
2017-11-19T02:22:12.074Z,941.7
2017-11-19T02:23:20.104Z,941.7
2017-11-19T02:24:28.248Z,941.8
2017-11-19T02:25:36.280Z,941.8
2017-11-19T02:26:44.421Z,941.8
2017-11-19T02:27:52.451Z,941.8
2017-11-19T02:29:00.680Z,941.8
2017-11-19T02:30:08.624Z,941.8
2017-11-19T02:31:16.712Z,941.7
2017-11-19T02:32:24.918Z,941.6
2017-11-19T02:33:32.888Z,941.7
2017-11-19T02:34:40.975Z,941.7
2017-11-19T02:35:49.109Z,941.6
2017-11-19T02:36:57.153Z,941.6
2017-11-19T02:38:05.364Z,941.6
2017-11-19T02:39:13.337Z,941.6
2017-11-19T02:40:21.479Z,941.6
2017-11-19T02:41:29.510Z,941.6
2017-11-19T02:42:37.596Z,941.6
2017-11-19T02:43:45.803Z,941.6
2017-11-19T02:44:53.769Z,941.6
2017-11-19T02:46:01.893Z,941.6
2017-11-19T02:47:09.986Z,941.6
2017-11-19T02:48:18.081Z,941.6
2017-11-19T02:49:26.223Z,941.7
2017-11-19T02:50:34.249Z,941.7
2017-11-19T02:51:42.332Z,941.7
2017-11-19T02:52:50.429Z,941.7
2017-11-19T02:53:58.508Z,941.7
2017-11-19T02:55:06.655Z,941.7
2017-11-19T02:56:14.803Z,941.7
2017-11-19T02:57:22.771Z,941.7
2017-11-19T02:58:30.945Z,941.7
2017-11-19T02:59:38.943Z,941.7
2017-11-19T03:00:47.086Z,941.7
2017-11-19T03:01:55.116Z,941.7
2017-11-19T03:03:03.289Z,941.7
2017-11-19T03:04:11.291Z,941.6
2017-11-19T03:05:19.390Z,941.6
2017-11-19T03:06:27.519Z,941.7
2017-11-19T03:07:35.560Z,941.6
2017-11-19T03:08:43.653Z,941.6
2017-11-19T03:09:51.735Z,941.6
2017-11-19T03:10:59.825Z,941.6
2017-11-19T03:12:08.174Z,941.6
2017-11-19T03:13:16.036Z,941.6
2017-11-19T03:14:24.288Z,941.6
2017-11-19T03:15:32.375Z,941.5
2017-11-19T03:16:40.461Z,941.5
2017-11-19T03:17:48.670Z,941.5
2017-11-19T03:18:56.637Z,941.5
2017-11-19T03:20:04.726Z,941.5
2017-11-19T03:21:12.811Z,941.5
2017-11-19T03:22:20.896Z,941.5
2017-11-19T03:23:29.041Z,941.5
2017-11-19T03:24:37.095Z,941.4
2017-11-19T03:25:45.159Z,941.4
2017-11-19T03:26:53.248Z,941.4
2017-11-19T03:28:01.453Z,941.3
2017-11-19T03:29:09.476Z,941.4
2017-11-19T03:30:17.506Z,941.4
2017-11-19T03:31:25.594Z,941.4
2017-11-19T03:32:33.678Z,941.4
2017-11-19T03:33:41.770Z,941.4
2017-11-19T03:34:49.908Z,941.3
2017-11-19T03:35:57.942Z,941.3
2017-11-19T03:37:06.027Z,941.3
2017-11-19T03:38:14.115Z,941.2
2017-11-19T03:39:22.245Z,941.3
2017-11-19T03:40:30.346Z,941.3
2017-11-19T03:41:39.709Z,941.4
2017-11-19T03:42:47.761Z,941.4
2017-11-19T03:43:55.943Z,941.4
2017-11-19T03:45:03.973Z,941.3
2017-11-19T03:46:12.179Z,941.3
2017-11-19T03:47:20.304Z,941.4
2017-11-19T03:48:28.231Z,941.4
2017-11-19T03:49:36.318Z,941.3
2017-11-19T03:50:44.406Z,941.2
2017-11-19T03:51:52.697Z,941.3
2017-11-19T03:53:00.582Z,941.3
2017-11-19T03:54:08.673Z,941.3
2017-11-19T03:55:16.755Z,941.3
2017-11-19T03:56:24.887Z,941.3
2017-11-19T03:57:32.984Z,941.3
2017-11-19T03:58:41.016Z,941.3
2017-11-19T03:59:49.222Z,941.2
2017-11-19T04:00:57.248Z,941.2
2017-11-19T04:02:05.274Z,941.2
2017-11-19T04:03:13.416Z,941.2
2017-11-19T04:04:21.463Z,941.1
2017-11-19T04:05:29.539Z,941.1
2017-11-19T04:06:37.624Z,941.1
2017-11-19T04:07:45.709Z,941.1
2017-11-19T04:08:53.924Z,941.0
2017-11-19T04:10:01.962Z,941.1
2017-11-19T04:11:09.977Z,941.1
2017-11-19T04:12:18.065Z,941.1
2017-11-19T04:13:26.150Z,941.1
2017-11-19T04:14:34.451Z,941.1
2017-11-19T04:15:42.474Z,941.1
2017-11-19T04:16:50.422Z,941.1
2017-11-19T04:17:58.512Z,941.1
2017-11-19T04:19:06.657Z,941.1
2017-11-19T04:20:14.808Z,941.1
2017-11-19T04:21:22.772Z,941.1
2017-11-19T04:22:30.865Z,941.1
2017-11-19T04:23:38.943Z,941.1
2017-11-19T04:24:47.126Z,941.1
2017-11-19T04:25:55.310Z,941.0
2017-11-19T04:27:03.206Z,941.0
2017-11-19T04:28:11.304Z,941.0
2017-11-19T04:29:19.466Z,941.0
2017-11-19T04:30:27.475Z,941.0
2017-11-19T04:31:35.619Z,941.0
2017-11-19T04:32:43.652Z,941.0
2017-11-19T04:33:51.740Z,941.0
2017-11-19T04:34:59.834Z,940.9
2017-11-19T04:36:07.919Z,941.0
2017-11-19T04:37:16.134Z,940.9
2017-11-19T04:38:24.152Z,940.9
2017-11-19T04:39:32.184Z,940.9
2017-11-19T04:40:40.279Z,940.8
2017-11-19T04:41:48.369Z,940.7
2017-11-19T04:42:56.512Z,940.7
2017-11-19T04:44:04.544Z,940.8
2017-11-19T04:45:12.631Z,940.7
2017-11-19T04:46:20.715Z,940.8
2017-11-19T04:47:28.862Z,940.8
2017-11-19T04:48:37.010Z,940.8
2017-11-19T04:49:44.976Z,940.8
2017-11-19T04:50:53.063Z,940.7
2017-11-19T04:52:01.208Z,940.6
2017-11-19T04:53:09.240Z,940.5
2017-11-19T04:54:17.383Z,940.6
2017-11-19T04:55:25.411Z,940.5
2017-11-19T04:56:33.501Z,940.4
2017-11-19T04:57:41.585Z,940.5
2017-11-19T04:58:49.671Z,940.5
2017-11-19T04:59:57.819Z,940.4
2017-11-19T05:01:05.995Z,940.2
2017-11-19T05:02:13.934Z,940.3
2017-11-19T05:03:22.141Z,940.3
2017-11-19T05:04:30.108Z,940.4
2017-11-19T05:05:38.401Z,940.3
2017-11-19T05:06:46.280Z,940.2
2017-11-19T05:07:54.366Z,940.1
2017-11-19T05:09:02.467Z,940.1
2017-11-19T05:10:10.553Z,940.1
2017-11-19T05:11:18.690Z,940.1
2017-11-19T05:12:26.722Z,940.2
2017-11-19T05:13:34.810Z,940.2
2017-11-19T05:14:42.893Z,940.3
2017-11-19T05:15:50.979Z,940.2
2017-11-19T05:16:59.124Z,940.2
2017-11-19T05:18:07.157Z,940.1
2017-11-19T05:19:15.363Z,940.1
2017-11-19T05:20:23.333Z,940.2
2017-11-19T05:21:31.419Z,940.2
2017-11-19T05:22:39.566Z,940.2
2017-11-19T05:23:47.590Z,940.3
2017-11-19T05:24:55.683Z,940.2
2017-11-19T05:26:03.785Z,940.2
2017-11-19T05:27:11.869Z,940.2
2017-11-19T05:28:20.080Z,940.2
2017-11-19T05:29:28.046Z,940.1
2017-11-19T05:30:36.131Z,940.1
2017-11-19T05:31:44.220Z,940.1
2017-11-19T05:32:52.305Z,940.1
2017-11-19T05:34:00.448Z,940.2
2017-11-19T05:35:08.537Z,940.3
2017-11-19T05:36:16.597Z,940.3
2017-11-19T05:37:24.653Z,940.3
2017-11-19T05:38:32.740Z,940.2
2017-11-19T05:39:40.952Z,940.2
2017-11-19T05:40:48.912Z,940.3
2017-11-19T05:41:57.000Z,940.3
2017-11-19T05:43:05.088Z,940.4
2017-11-19T05:44:13.529Z,940.4
2017-11-19T05:45:23.321Z,940.4
2017-11-19T05:46:29.641Z,940.4
2017-11-19T05:47:37.761Z,940.4
2017-11-19T05:48:45.947Z,940.3
2017-11-19T05:49:53.950Z,940.2
2017-11-19T05:52:10.355Z,940.3
2017-11-19T05:53:18.388Z,940.2
2017-11-19T05:54:26.408Z,940.2
2017-11-19T05:55:34.612Z,940.3
2017-11-19T05:56:44.282Z,940.3
2017-11-19T05:57:50.550Z,940.2
2017-11-19T05:58:59.571Z,940.2
2017-11-19T06:00:06.920Z,940.1
2017-11-19T06:01:15.160Z,940.1
2017-11-19T06:02:22.691Z,940.2
2017-11-19T06:03:30.657Z,940.1
2017-11-19T06:04:38.743Z,940.2
2017-11-19T06:05:46.935Z,940.1
2017-11-19T06:06:54.977Z,940.1
2017-11-19T06:08:03.059Z,940.1
2017-11-19T06:09:11.122Z,940.1
2017-11-19T06:10:19.302Z,940.2
2017-11-19T06:11:27.263Z,940.2
2017-11-19T06:12:35.354Z,940.2
2017-11-19T06:13:43.560Z,940.2
2017-11-19T06:14:51.551Z,940.2
2017-11-19T06:15:59.611Z,940.2
2017-11-19T06:17:07.695Z,940.2
2017-11-19T06:18:15.783Z,940.3
2017-11-19T06:19:24.067Z,940.3
2017-11-19T06:20:31.955Z,940.3
2017-11-19T06:21:40.042Z,940.3
2017-11-19T06:22:48.186Z,940.3
2017-11-19T06:23:56.220Z,940.3
2017-11-19T06:25:04.438Z,940.4
2017-11-19T06:26:12.387Z,940.4
2017-11-19T06:27:20.474Z,940.4
2017-11-19T06:28:28.563Z,940.4
2017-11-19T06:29:36.643Z,940.4
2017-11-19T06:30:44.790Z,940.4
2017-11-19T06:31:52.833Z,940.5
2017-11-19T06:33:01.021Z,940.5
2017-11-19T06:34:08.992Z,940.5
2017-11-19T06:35:17.079Z,940.5
2017-11-19T06:36:25.281Z,940.5
2017-11-19T06:37:33.378Z,940.5
2017-11-19T06:38:41.398Z,940.5
2017-11-19T06:39:49.423Z,940.5
2017-11-19T06:40:57.508Z,940.6
2017-11-19T06:42:05.695Z,940.6
2017-11-19T06:43:13.681Z,940.6
2017-11-19T06:44:21.777Z,940.7
2017-11-19T06:45:29.882Z,940.7
2017-11-19T06:46:37.976Z,940.7
2017-11-19T06:47:46.320Z,940.8
2017-11-19T06:48:54.145Z,940.8
2017-11-19T06:50:02.238Z,940.8
2017-11-19T06:51:10.437Z,940.8
2017-11-19T06:52:18.465Z,940.8
2017-11-19T06:53:26.558Z,940.8
2017-11-19T06:54:34.641Z,940.8
2017-11-19T06:55:42.675Z,940.8
2017-11-19T06:56:50.757Z,940.8
2017-11-19T06:57:58.849Z,940.8
2017-11-19T06:59:07.056Z,940.8
2017-11-19T07:00:15.018Z,940.7
2017-11-19T07:01:23.137Z,940.8
2017-11-19T07:02:31.191Z,940.8
2017-11-19T07:03:39.274Z,940.8
2017-11-19T07:04:47.705Z,940.8
2017-11-19T07:05:55.725Z,940.9
2017-11-19T07:07:03.807Z,940.8
2017-11-19T07:08:11.896Z,940.8
2017-11-19T07:09:20.171Z,940.8
2017-11-19T07:10:28.191Z,940.8
2017-11-19T07:11:36.153Z,940.9
2017-11-19T07:12:44.242Z,940.9
2017-11-19T07:13:52.402Z,941.0
2017-11-19T07:15:00.680Z,941.0
2017-11-19T07:16:08.619Z,941.0
2017-11-19T07:17:16.591Z,941.0
2017-11-19T07:18:24.860Z,941.1
2017-11-19T07:19:32.774Z,941.1
2017-11-19T07:20:40.853Z,941.1
2017-11-19T07:21:48.998Z,941.1
2017-11-19T07:22:57.089Z,941.1
2017-11-19T07:24:05.123Z,941.2
2017-11-19T07:25:13.210Z,941.2
2017-11-19T07:26:21.356Z,941.2
2017-11-19T07:27:29.518Z,941.1
2017-11-19T07:28:37.469Z,941.2
2017-11-19T07:29:45.557Z,941.2
2017-11-19T07:30:53.651Z,941.2
2017-11-19T07:32:01.896Z,941.2
2017-11-19T07:33:09.937Z,941.2
2017-11-19T07:34:17.903Z,941.2
2017-11-19T07:35:25.992Z,941.2
2017-11-19T07:36:34.162Z,941.2
2017-11-19T07:37:42.163Z,941.2
2017-11-19T07:38:50.304Z,941.2
2017-11-19T07:39:58.333Z,941.2
2017-11-19T07:41:06.424Z,941.2
2017-11-19T07:42:14.565Z,941.2
2017-11-19T07:43:22.598Z,941.2
2017-11-19T07:44:30.737Z,941.3
2017-11-19T07:45:38.952Z,941.4
2017-11-19T07:46:46.894Z,941.4
2017-11-19T07:47:54.943Z,941.4
2017-11-19T07:49:03.027Z,941.3
2017-11-19T07:50:11.177Z,941.4
2017-11-19T07:51:19.318Z,941.4
2017-11-19T07:52:27.288Z,941.4
2017-11-19T07:53:35.377Z,941.4
2017-11-19T07:54:43.629Z,941.4
2017-11-19T07:55:51.686Z,941.4
2017-11-19T07:56:59.642Z,941.4
2017-11-19T07:58:09.479Z,941.4
2017-11-19T07:59:15.883Z,941.4
2017-11-19T08:00:23.901Z,941.4
2017-11-19T08:01:32.040Z,941.4
2017-11-19T08:02:40.069Z,941.5
2017-11-19T08:03:48.157Z,941.5
2017-11-19T08:04:56.820Z,941.6
2017-11-19T08:06:04.634Z,941.5
2017-11-19T08:07:12.950Z,941.5
2017-11-19T08:08:21.039Z,941.5
2017-11-19T08:09:28.939Z,941.5
2017-11-19T08:10:36.980Z,941.5
2017-11-19T08:11:45.209Z,941.5
2017-11-19T08:12:53.288Z,941.5
2017-11-19T08:14:01.296Z,941.5
2017-11-19T08:15:09.325Z,941.5
2017-11-19T08:16:17.409Z,941.5
2017-11-19T08:17:25.596Z,941.4
2017-11-19T08:18:33.642Z,941.5
2017-11-19T08:19:41.671Z,941.5
2017-11-19T08:20:49.764Z,941.5
2017-11-19T08:21:57.938Z,941.6
2017-11-19T08:23:05.932Z,941.5
2017-11-19T08:24:14.094Z,941.5
2017-11-19T08:25:22.135Z,941.5
2017-11-19T08:26:30.383Z,941.5
2017-11-19T08:27:38.299Z,941.6
2017-11-19T08:28:46.387Z,941.5
2017-11-19T08:29:55.207Z,941.5
2017-11-19T08:31:03.155Z,941.5
2017-11-19T08:32:10.642Z,941.5
2017-11-19T08:33:18.730Z,941.5
2017-11-19T08:34:26.813Z,941.5
2017-11-19T08:35:35.081Z,941.5
2017-11-19T08:36:42.989Z,941.5
2017-11-19T08:37:51.235Z,941.5
2017-11-19T08:38:59.162Z,941.5
2017-11-19T08:40:07.399Z,941.5
2017-11-19T08:41:15.456Z,941.6
2017-11-19T08:42:23.507Z,941.6
2017-11-19T08:43:31.508Z,941.6
2017-11-19T08:44:39.630Z,941.6
2017-11-19T08:45:48.623Z,941.6
2017-11-19T08:46:55.823Z,941.6
2017-11-19T08:48:03.977Z,941.6
2017-11-19T08:49:11.940Z,941.6
2017-11-19T08:50:20.035Z,941.6
2017-11-19T08:51:28.783Z,941.6
2017-11-19T08:52:36.978Z,941.6
2017-11-19T08:53:44.732Z,941.6
2017-11-19T08:54:52.902Z,941.7
2017-11-19T08:56:01.164Z,941.7
2017-11-19T08:57:09.028Z,941.7
2017-11-19T08:58:18.916Z,941.7
2017-11-19T08:59:26.313Z,941.7
2017-11-19T09:00:33.485Z,941.7
2017-11-19T09:01:42.732Z,941.7
2017-11-19T09:02:49.446Z,941.7
2017-11-19T09:03:59.191Z,941.7
2017-11-19T09:05:05.832Z,941.8
2017-11-19T09:06:13.684Z,941.8
2017-11-19T09:07:21.750Z,941.8
2017-11-19T09:08:29.886Z,941.8
2017-11-19T09:09:39.393Z,941.9
2017-11-19T09:10:46.141Z,941.9
2017-11-19T09:11:54.329Z,941.9
2017-11-19T09:13:02.138Z,942.0
2017-11-19T09:14:10.350Z,941.9
2017-11-19T09:15:20.104Z,941.9
2017-11-19T09:16:26.642Z,941.9
2017-11-19T09:17:35.149Z,941.9
2017-11-19T09:18:42.657Z,941.9
2017-11-19T09:19:50.836Z,941.9
2017-11-19T09:21:00.392Z,942.0
2017-11-19T09:22:07.034Z,942.0
2017-11-19T09:23:15.093Z,942.0
2017-11-19T09:24:23.236Z,942.0
2017-11-19T09:25:31.104Z,942.0
2017-11-19T09:26:40.966Z,942.1
2017-11-19T09:27:47.314Z,942.1
2017-11-19T09:28:55.514Z,942.1
2017-11-19T09:30:03.332Z,942.2
2017-11-19T09:31:11.578Z,942.2
2017-11-19T09:32:21.373Z,942.2
2017-11-19T09:33:29.518Z,942.2
2017-11-19T09:34:35.964Z,942.2
2017-11-19T09:35:43.948Z,942.3
2017-11-19T09:36:52.213Z,942.2
2017-11-19T09:38:01.671Z,942.3
2017-11-19T09:39:08.261Z,942.2
2017-11-19T09:40:16.345Z,942.4
2017-11-19T09:41:24.507Z,942.4
2017-11-19T09:42:32.538Z,942.4
2017-11-19T09:43:41.067Z,942.4
2017-11-19T09:44:48.623Z,942.4
2017-11-19T09:45:57.683Z,942.4
2017-11-19T09:47:05.030Z,942.4
2017-11-19T09:48:12.850Z,942.4
2017-11-19T09:49:26.570Z,942.4
2017-11-19T09:50:29.133Z,942.5
2017-11-19T09:51:37.379Z,942.5
2017-11-19T09:52:45.354Z,942.5
2017-11-19T09:53:53.553Z,942.6
2017-11-19T09:55:01.925Z,942.5
2017-11-19T09:56:09.540Z,942.5
2017-11-19T09:57:17.645Z,942.5
2017-11-19T09:58:25.613Z,942.5
2017-11-19T09:59:33.696Z,942.5
2017-11-19T10:00:43.296Z,942.6
2017-11-19T10:01:49.986Z,942.6
2017-11-19T10:02:58.086Z,942.6
2017-11-19T10:04:06.298Z,942.6
2017-11-19T10:05:15.981Z,942.6
2017-11-19T10:06:23.980Z,942.6
2017-11-19T10:07:30.423Z,942.7
2017-11-19T10:08:38.518Z,942.6
2017-11-19T10:09:46.725Z,942.6
2017-11-19T10:10:54.840Z,942.6
2017-11-19T10:12:04.314Z,942.6
2017-11-19T10:13:10.885Z,942.6
2017-11-19T10:14:18.896Z,942.5
2017-11-19T10:15:27.074Z,942.6
2017-11-19T10:16:35.088Z,942.6
2017-11-19T10:17:44.721Z,942.6
2017-11-19T10:18:51.224Z,942.7
2017-11-19T10:19:59.335Z,942.7
2017-11-19T10:21:08.881Z,942.7
2017-11-19T10:22:15.492Z,942.8
2017-11-19T10:23:24.190Z,942.8
2017-11-19T10:24:31.736Z,942.8
2017-11-19T10:25:39.853Z,942.8
2017-11-19T10:26:47.970Z,942.8
2017-11-19T10:27:55.977Z,942.8
2017-11-19T10:29:04.548Z,942.8
2017-11-19T10:30:12.220Z,942.8
2017-11-19T10:31:20.220Z,942.8
2017-11-19T10:32:28.386Z,942.9
2017-11-19T10:33:36.502Z,942.9
2017-11-19T10:34:44.869Z,942.9
2017-11-19T10:35:52.502Z,943.0
2017-11-19T10:37:02.140Z,943.0
2017-11-19T10:38:08.663Z,942.9
2017-11-19T10:39:16.838Z,943.0
2017-11-19T10:40:26.565Z,942.9
2017-11-19T10:41:33.951Z,942.9
2017-11-19T10:42:41.039Z,942.9
2017-11-19T10:43:49.085Z,943.0
2017-11-19T10:44:57.572Z,942.9
2017-11-19T10:46:07.391Z,943.0
2017-11-19T10:47:14.018Z,943.0
2017-11-19T10:48:22.050Z,943.0
2017-11-19T10:49:30.145Z,943.0
2017-11-19T10:50:38.365Z,942.9
2017-11-19T10:51:47.874Z,943.0
2017-11-19T10:52:55.891Z,943.0
2017-11-19T10:54:02.696Z,942.9
2017-11-19T10:55:10.576Z,942.9
2017-11-19T10:56:18.677Z,943.0
2017-11-19T10:57:28.309Z,943.0
2017-11-19T10:58:34.892Z,943.0
2017-11-19T10:59:43.061Z,943.0
2017-11-19T11:00:51.086Z,943.1
2017-11-19T11:02:00.224Z,943.1
2017-11-19T11:03:08.925Z,943.0
2017-11-19T11:04:15.257Z,943.1
2017-11-19T11:05:23.415Z,943.0
2017-11-19T11:06:31.547Z,943.0
2017-11-19T11:07:39.571Z,943.0
2017-11-19T11:08:49.209Z,943.1
2017-11-19T11:09:55.864Z,943.1
2017-11-19T11:11:03.682Z,943.1
2017-11-19T11:12:11.980Z,943.1
2017-11-19T11:13:19.996Z,943.1
2017-11-19T11:14:29.528Z,943.1
2017-11-19T11:15:36.201Z,943.1
2017-11-19T11:16:44.382Z,943.1
2017-11-19T11:17:52.403Z,943.1
2017-11-19T11:19:00.401Z,943.1
2017-11-19T11:20:09.906Z,943.1
2017-11-19T11:21:16.712Z,943.0
2017-11-19T11:22:24.933Z,943.1
2017-11-19T11:23:32.935Z,943.1
2017-11-19T11:24:42.501Z,943.1
2017-11-19T11:25:50.588Z,943.1
2017-11-19T11:26:57.164Z,943.1
2017-11-19T11:28:05.399Z,943.1
2017-11-19T11:29:13.534Z,943.1
2017-11-19T11:30:21.371Z,943.1
2017-11-19T11:31:31.117Z,943.1
2017-11-19T11:32:37.694Z,943.1
2017-11-19T11:33:45.758Z,943.1
2017-11-19T11:34:53.810Z,943.1
2017-11-19T11:36:02.005Z,943.1
2017-11-19T11:37:10.458Z,943.1
2017-11-19T11:38:18.032Z,943.1
2017-11-19T11:39:26.218Z,943.1
2017-11-19T11:40:35.915Z,943.0
2017-11-19T11:41:42.125Z,943.0
2017-11-19T11:42:51.918Z,943.0
2017-11-19T11:43:58.604Z,943.0
2017-11-19T11:45:06.684Z,943.0
2017-11-19T11:46:14.756Z,943.1
2017-11-19T11:47:22.812Z,943.1
2017-11-19T11:48:31.299Z,943.1
2017-11-19T11:49:39.023Z,943.0
2017-11-19T11:50:48.105Z,943.0
2017-11-19T11:51:54.907Z,943.1
2017-11-19T11:53:03.225Z,943.0
2017-11-19T11:54:12.936Z,943.1
2017-11-19T11:55:19.174Z,943.1
2017-11-19T11:56:27.931Z,943.1
2017-11-19T11:57:35.517Z,943.1
2017-11-19T11:58:43.792Z,943.1
2017-11-19T11:59:52.203Z,943.1
2017-11-19T12:00:59.688Z,943.2
2017-11-19T12:02:07.987Z,943.2
2017-11-19T12:03:15.924Z,943.2
2017-11-19T12:04:24.201Z,943.1
2017-11-19T12:05:32.758Z,943.1
2017-11-19T12:06:40.260Z,943.2
2017-11-19T12:07:48.338Z,943.2
2017-11-19T12:08:56.595Z,943.3
2017-11-19T12:10:04.629Z,943.3
2017-11-19T12:11:13.081Z,943.2
2017-11-19T12:12:21.220Z,943.3
2017-11-19T12:13:28.794Z,943.3
2017-11-19T12:14:36.853Z,943.3
2017-11-19T12:15:44.728Z,943.3
2017-11-19T12:16:53.381Z,943.3
2017-11-19T12:18:01.066Z,943.3
2017-11-19T12:19:09.222Z,943.3
2017-11-19T12:20:17.157Z,943.3
2017-11-19T12:21:25.322Z,943.2
2017-11-19T12:22:33.992Z,943.2
2017-11-19T12:23:41.460Z,943.3
2017-11-19T12:24:49.586Z,943.3
2017-11-19T12:25:57.730Z,943.3
2017-11-19T12:27:05.688Z,943.3
2017-11-19T12:28:14.323Z,943.3
2017-11-19T12:29:21.864Z,943.2
2017-11-19T12:30:29.999Z,943.2
2017-11-19T12:31:38.089Z,943.2
2017-11-19T12:32:46.211Z,943.2
2017-11-19T12:33:55.881Z,943.2
2017-11-19T12:35:02.538Z,943.2
2017-11-19T12:36:10.555Z,943.2
2017-11-19T12:37:18.638Z,943.2
2017-11-19T12:38:26.704Z,943.2
2017-11-19T12:39:35.227Z,943.3
2017-11-19T12:40:42.563Z,943.3
2017-11-19T12:41:50.898Z,943.3
2017-11-19T12:42:58.824Z,943.3
2017-11-19T12:44:07.530Z,943.3
2017-11-19T12:45:15.560Z,943.2
2017-11-19T12:46:23.667Z,943.2
2017-11-19T12:47:31.381Z,943.3
2017-11-19T12:48:39.540Z,943.3
2017-11-19T12:49:47.469Z,943.3
2017-11-19T12:50:56.109Z,943.3
2017-11-19T12:52:04.006Z,943.3
2017-11-19T12:53:11.669Z,943.3
2017-11-19T12:54:19.901Z,943.3
2017-11-19T12:55:27.967Z,943.3
2017-11-19T12:56:37.873Z,943.3
2017-11-19T12:57:44.061Z,943.4
2017-11-19T12:58:51.953Z,943.4
2017-11-19T13:00:00.828Z,943.4
2017-11-19T13:01:08.413Z,943.3
2017-11-19T13:02:16.825Z,943.4
2017-11-19T13:03:24.369Z,943.4
2017-11-19T13:04:32.733Z,943.4
2017-11-19T13:05:40.760Z,943.4
2017-11-19T13:06:48.958Z,943.4
2017-11-19T13:07:57.432Z,943.5
2017-11-19T13:09:04.980Z,943.5
2017-11-19T13:10:13.144Z,943.4
2017-11-19T13:11:21.202Z,943.5
2017-11-19T13:12:29.300Z,943.5
2017-11-19T13:13:37.872Z,943.5
2017-11-19T13:14:45.414Z,943.5
2017-11-19T13:15:55.264Z,943.5
2017-11-19T13:17:01.886Z,943.5
2017-11-19T13:18:09.663Z,943.5
2017-11-19T13:19:18.276Z,943.5
2017-11-19T13:20:26.105Z,943.5
2017-11-19T13:21:33.933Z,943.5
2017-11-19T13:22:42.299Z,943.5
2017-11-19T13:23:50.053Z,943.5
2017-11-19T13:24:59.889Z,943.5
2017-11-19T13:26:06.442Z,943.5
2017-11-19T13:27:14.641Z,943.6
2017-11-19T13:28:22.707Z,943.6
2017-11-19T13:29:30.380Z,943.6
2017-11-19T13:30:39.025Z,943.6
2017-11-19T13:31:47.301Z,943.6
2017-11-19T13:32:54.830Z,943.6
2017-11-19T13:34:02.894Z,943.6
2017-11-19T13:35:10.937Z,943.5
2017-11-19T13:36:19.120Z,943.6
2017-11-19T13:37:27.197Z,943.6
2017-11-19T13:38:35.383Z,943.6
2017-11-19T13:39:43.428Z,943.6
2017-11-19T13:40:51.405Z,943.6
2017-11-19T13:42:00.131Z,943.6
2017-11-19T13:43:07.605Z,943.5
2017-11-19T13:44:15.971Z,943.6
2017-11-19T13:45:24.138Z,943.6
2017-11-19T13:46:32.081Z,943.6
2017-11-19T13:47:40.652Z,943.6
2017-11-19T13:48:48.294Z,943.6
2017-11-19T13:49:56.302Z,943.6
2017-11-19T13:51:04.439Z,943.7
2017-11-19T13:52:12.476Z,943.7
2017-11-19T13:53:20.964Z,943.7
2017-11-19T13:54:28.817Z,943.7
2017-11-19T13:55:36.688Z,943.7
2017-11-19T13:56:45.025Z,943.7
2017-11-19T13:57:52.845Z,943.7
2017-11-19T13:59:01.157Z,943.7
2017-11-19T14:00:09.101Z,943.7
2017-11-19T14:01:17.278Z,943.7
2017-11-19T14:02:25.649Z,943.7
2017-11-19T14:03:33.272Z,943.7
2017-11-19T14:04:41.999Z,943.7
2017-11-19T14:05:49.464Z,943.8
2017-11-19T14:06:57.413Z,943.8
2017-11-19T14:08:05.541Z,943.8
2017-11-19T14:09:13.893Z,943.8
2017-11-19T14:10:22.418Z,943.8
2017-11-19T14:11:29.883Z,943.8
2017-11-19T14:12:38.091Z,943.8
2017-11-19T14:13:46.129Z,943.8
2017-11-19T14:14:54.231Z,943.8
2017-11-19T14:16:03.895Z,943.8
2017-11-19T14:17:10.577Z,943.9
2017-11-19T14:18:19.021Z,943.9
2017-11-19T14:19:27.399Z,943.9
2017-11-19T14:20:36.125Z,943.9
2017-11-19T14:21:42.624Z,943.9
2017-11-19T14:22:50.664Z,943.8
2017-11-19T14:23:58.741Z,943.9
2017-11-19T14:25:06.829Z,943.9
2017-11-19T14:26:14.915Z,943.9
2017-11-19T14:27:23.167Z,943.9
2017-11-19T14:28:31.092Z,943.9
2017-11-19T14:29:39.180Z,943.9
2017-11-19T14:30:47.264Z,943.8
2017-11-19T14:31:55.352Z,943.9
2017-11-19T14:33:03.496Z,943.8
2017-11-19T14:34:11.527Z,943.9
2017-11-19T14:35:19.668Z,943.9
2017-11-19T14:36:27.720Z,943.9
2017-11-19T14:37:35.847Z,943.9